Mataró





Hora UTC 17:15
Temperatura 10.3 ºC
Subsuelo 10 cm 9.7 ºC
Humedad 80.4 %
Presión 1030.9 hPa
Pluja 0.0 mm
Velocidad viento 3.4 km/h
Dirección viento SW
Radiación solar 0.8 W/m²

Datos diarios 2022-01-25



Hora UTC (invierno +1h; verano +2h)
Temperatura (ºC) Humedad (%) Presión (hPa) Velocidad viento (km/h) Precipitación (mm) Radiación solar (W/m²)
Hora UTC Aire Subsuelo 10 cm Humedad Presión Vel. Dir. Vel. Max Dir. Intent. máx 5 min. Rad. Sol.
00:05 8.0 7.1 83.0 1030.6 9.4 NNW 9.4 NNW 0.0 0.1
00:10 8.0 7.1 82.9 1030.6 9.3 NNW 11.3 NNW 0.0 0.1
00:15 7.9 7.1 82.9 1030.6 8.9 NNW 10.6 NNW 0.0 0.1
00:20 7.9 7.0 82.8 1030.6 9.3 NNW 11.3 NNW 0.0 0.1
00:25 7.7 6.8 83.6 1030.5 9.4 NNW 11.3 NNW 0.0 0.1
00:30 7.7 6.8 83.9 1030.5 8.9 NNW 10.9 NNW 0.0 0.1
00:35 7.8 6.7 83.4 1030.5 8.5 NNW 10.6 NNW 0.0 0.2
00:40 7.7 6.6 83.5 1030.5 8.2 NNW 9.9 N 0.0 0.1
00:45 7.7 6.6 83.3 1030.6 8.5 NNW 9.9 NNW 0.0 0.1
00:50 7.7 6.6 83.0 1030.6 8.3 NNW 9.9 NNW 0.0 0.1
00:55 7.7 6.6 82.8 1030.6 8.2 NNW 9.9 NNW 0.0 0.1
01:00 7.7 6.5 82.8 1030.6 8.0 NNW 10.2 N 0.0 0.1
01:05 7.7 6.4 82.7 1030.6 7.6 NNW 8.8 NNW 0.0 0.1
01:10 7.7 6.3 82.5 1030.6 8.0 NNW 9.9 NNW 0.0 0.1
01:15 7.6 6.3 82.6 1030.7 8.0 NNW 9.5 NNW 0.0 0.1
01:20 7.4 6.2 83.1 1030.7 8.0 NNW 10.6 NNW 0.0 0.1
01:25 7.5 6.3 83.3 1030.6 9.3 NNW 12.0 NNW 0.0 0.1
01:30 7.6 6.4 82.9 1030.7 8.0 NNW 12.0 NNW 0.0 0.1
01:35 7.5 6.3 83.2 1030.7 7.8 NNW 9.9 NNW 0.0 0.1
01:40 7.2 6.1 83.7 1030.7 7.3 NW 8.8 NW 0.0 0.1
01:45 7.0 5.8 85.5 1030.8 7.1 NNW 9.5 NNW 0.0 0.1
01:50 7.2 5.7 85.1 1030.8 7.3 NNW 9.9 NNW 0.0 0.1
01:55 7.1 5.6 84.5 1030.9 6.1 NNW 9.2 NNW 0.0 0.1
02:00 7.0 5.3 86.0 1030.9 4.7 NNW 6.4 NNW 0.0 0.1
02:05 6.9 5.1 85.3 1030.9 4.1 NNW 5.6 NNW 0.0 0.1
02:10 6.9 4.7 87.1 1031.0 4.4 NNW 5.6 NNW 0.0 0.1
02:15 7.1 4.5 86.1 1030.9 4.2 NNW 5.3 NNW 0.0 0.1
02:20 7.2 4.6 86.0 1030.9 4.3 NW 7.1 NW 0.0 0.1
02:25 7.2 4.8 85.8 1030.9 5.2 NW 6.4 NNW 0.0 0.1
02:30 7.0 4.9 85.9 1030.8 6.1 NW 8.1 NW 0.0 0.1
02:35 6.5 4.7 87.2 1030.8 6.3 NW 8.5 NW 0.0 0.1
02:40 6.4 4.7 88.3 1030.9 5.1 NNW 6.0 NNW 0.0 0.1
02:45 6.1 4.4 88.8 1030.9 4.9 NNW 6.0 NNW 0.0 0.1
02:50 6.1 4.2 89.1 1030.8 5.4 NNW 7.8 NNW 0.0 0.1
02:55 6.3 4.2 87.6 1030.8 5.4 NNW 6.7 N 0.0 0.1
03:00 6.0 4.0 87.7 1030.8 5.1 NNW 6.7 NNW 0.0 0.1
03:05 5.7 3.9 88.9 1030.8 5.9 NNW 7.8 NW 0.0 0.1
03:10 5.7 3.9 88.5 1030.7 7.2 NW 8.8 NW 0.0 0.1
03:15 5.7 4.1 89.1 1030.7 6.9 NW 8.8 NW 0.0 0.1
03:20 5.7 4.2 88.8 1030.7 7.5 NW 10.2 NW 0.0 0.1
03:25 5.6 4.2 88.5 1030.7 8.4 NW 10.2 NW 0.0 0.1
03:30 5.8 4.4 87.4 1030.6 8.3 NNW 10.2 NW 0.0 0.1
03:35 5.8 4.5 86.6 1030.6 6.6 NNW 8.5 NNW 0.0 0.1
03:40 5.8 4.4 85.8 1030.6 7.2 NNW 10.2 NNW 0.0 0.1
03:45 5.8 4.4 85.9 1030.6 7.2 NNW 10.2 NNW 0.0 0.1
03:50 5.8 4.3 86.4 1030.6 6.9 NNW 9.2 NNW 0.0 0.1
03:55 5.9 4.3 86.0 1030.6 7.3 NNW 9.5 NW 0.0 0.1
04:00 5.9 4.3 85.9 1030.6 6.3 NW 8.1 NW 0.0 0.1
04:05 5.7 4.2 86.8 1030.7 6.4 NW 8.5 NW 0.0 0.1
04:10 5.6 4.0 86.9 1030.7 7.5 NW 10.9 NNW 0.0 0.1
04:15 5.6 4.0 86.7 1030.7 8.8 NW 11.3 NNW 0.0 0.1
04:20 5.8 4.3 86.6 1030.7 8.8 NNW 9.9 NW 0.0 0.1
04:25 5.8 4.4 86.1 1030.7 7.5 NW 9.5 NW 0.0 0.1
04:30 5.7 4.4 86.3 1030.7 6.6 NW 8.8 NW 0.0 0.1
04:35 6.0 4.3 86.1 1030.7 6.9 NNW 9.5 NNW 0.0 0.1
04:40 6.1 4.4 85.1 1030.7 8.8 NNW 10.2 NW 0.0 0.1
04:45 6.1 4.6 85.2 1030.7 8.8 NNW 10.9 NNW 0.0 0.1
04:50 6.4 4.9 82.9 1030.7 8.9 NNW 11.6 NNW 0.0 0.1
04:55 6.5 5.1 82.7 1030.7 8.2 NNW 9.9 NNW 0.0 0.1
05:00 6.6 5.2 82.2 1030.7 9.2 NNW 12.0 NNW 0.0 0.1
05:05 6.8 5.4 81.1 1030.7 9.6 NNW 12.0 NNW 0.0 0.1
05:10 6.9 5.6 80.6 1030.6 9.1 NNW 11.3 N 0.0 0.1
05:15 6.9 5.6 80.1 1030.7 9.6 NNW 12.4 NW 0.0 0.1
05:20 6.9 5.7 80.0 1030.6 10.0 NNW 12.7 NNW 0.0 0.1
05:25 6.8 5.7 80.0 1030.7 11.4 NNW 14.1 NNW 0.0 0.1
05:30 7.0 5.9 79.0 1030.7 12.1 NNW 13.8 NNW 0.0 0.1
05:35 7.1 6.0 78.0 1030.7 11.3 NNW 13.4 NNW 0.0 0.1
05:40 7.1 6.1 77.6 1030.7 11.1 NNW 14.1 NNW 0.0 0.1
05:45 7.2 6.2 77.1 1030.7 10.6 NNW 13.4 NNW 0.0 0.1
05:50 7.2 6.2 77.0 1030.7 10.7 NNW 13.4 NNW 0.0 0.1
05:55 7.1 6.2 77.4 1030.7 10.8 NNW 13.8 NNW 0.0 0.1
06:00 7.1 6.2 77.5 1030.8 9.4 NNW 13.1 NNW 0.0 0.1
06:05 6.5 5.8 79.3 1030.8 8.3 NW 10.9 NW 0.0 0.1
06:10 6.1 5.3 80.7 1030.9 8.2 NW 10.2 NW 0.0 0.1
06:15 5.7 4.8 82.5 1030.9 9.3 NW 12.0 WNW 0.0 0.1
06:20 5.6 4.5 82.8 1030.9 9.2 NW 11.3 NW 0.0 0.1
06:25 5.7 4.4 82.8 1031.0 8.6 NW 11.3 NW 0.0 0.1
06:30 5.7 4.4 83.0 1031.0 9.0 NW 11.6 WNW 0.0 0.1
06:35 5.8 4.5 82.8 1031.0 10.0 NW 12.7 NNW 0.0 0.1
06:40 5.9 4.6 82.1 1031.0 10.0 NW 12.4 NW 0.0 0.1
06:45 6.0 4.8 81.6 1031.0 9.1 NW 12.4 NNW 0.0 0.2
06:50 6.0 4.8 81.3 1031.1 8.5 NNW 12.7 NW 0.0 0.4
06:55 5.9 4.9 80.9 1031.1 10.0 NNW 15.9 NNW 0.0 1.1
07:00 6.3 5.2 78.3 1031.1 9.7 NNW 14.5 NNW 0.0 1.8
07:05 6.0 5.1 78.6 1031.2 8.5 NW 11.3 WNW 0.0 3.2
07:10 6.1 5.1 77.5 1031.2 9.1 NNW 13.8 NNW 0.0 5.1
07:15 6.4 5.3 76.1 1031.2 9.1 NNW 14.5 NNW 0.0 7.4
07:20 6.8 5.7 75.4 1031.2 9.1 NNW 12.0 NNW 0.0 12.2
07:25 6.7 5.8 76.4 1031.3 6.5 NW 9.9 NNW 0.0 20.5
07:30 6.3 5.5 79.2 1031.3 6.7 NNW 10.2 NNW 0.0 32.5
07:35 6.7 5.7 80.0 1031.4 8.0 NNW 9.9 NNW 0.0 44.2
07:40 7.0 6.6 78.9 1031.3 8.9 NNW 10.6 NNW 0.0 57.7
07:45 7.2 7.4 79.1 1031.4 7.9 NNW 12.4 NW 0.0 69.9
07:50 7.3 8.0 79.3 1031.5 6.1 NW 7.4 NW 0.0 82.1
07:55 7.2 8.3 79.9 1031.5 5.6 NW 7.4 NNW 0.0 94.2
08:00 7.3 8.0 79.5 1031.5 5.7 NW 10.9 WNW 0.0 107.0
08:05 7.7 8.1 78.6 1031.5 7.0 NW 8.5 NW 0.0 120.2
08:10 8.1 9.4 79.1 1031.5 4.8 NW 8.1 NW 0.0 132.6
08:15 8.4 10.2 78.2 1031.5 7.1 NW 9.5 NW 0.0 145.4
08:20 8.7 10.8 77.1 1031.5 5.3 NW 8.5 NW 0.0 158.3
08:25 9.1 11.8 76.9 1031.6 5.5 NW 7.4 NW 0.0 171.5
08:30 9.3 12.3 76.0 1031.6 4.5 NNW 7.4 NNW 0.0 183.9
08:35 9.5 12.9 75.4 1031.6 3.3 NNW 5.3 NNW 0.0 197.2
08:40 9.8 13.3 75.1 1031.6 3.3 WNW 6.7 WNW 0.0 208.8
08:45 10.0 13.5 74.4 1031.6 3.6 WNW 7.4 WNW 0.0 220.7
08:50 10.2 13.7 74.0 1031.6 3.5 W 6.0 WNW 0.0 233.2
08:55 10.4 14.1 73.2 1031.6 2.8 WNW 6.0 WNW 0.0 246.1
09:00 10.6 14.3 72.5 1031.6 2.7 W 6.4 NW 0.0 258.6
09:05 10.9 14.5 71.3 1031.7 1.2 WNW 5.6 WNW 0.0 269.9
09:10 10.7 15.0 70.6 1031.7 3.6 NW 6.0 WNW 0.0 281.3
09:15 10.6 14.9 71.7 1031.8 3.4 NW 6.0 NNW 0.0 292.3
09:20 11.0 14.6 70.7 1031.8 2.3 WNW 5.3 W 0.0 303.0
09:25 11.3 14.9 70.1 1031.9 1.0 W 3.2 SSW 0.0 313.9
09:30 11.5 15.0 70.1 1031.9 3.1 WSW 5.6 W 0.0 323.2
09:35 11.7 15.1 68.6 1031.9 4.7 SW 9.2 SSW 0.0 333.1
09:40 11.9 15.4 67.9 1032.0 4.9 SSE 9.9 SSW 0.0 340.7
09:45 11.9 15.5 66.8 1032.1 4.8 SSW 7.1 S 0.0 351.2
09:50 11.9 15.5 66.4 1032.1 5.2 S 7.8 SW 0.0 358.8
09:55 11.9 15.6 66.4 1032.2 5.0 S 8.1 S 0.0 371.4
10:00 12.0 15.7 65.6 1032.1 3.4 SSW 10.9 SW 0.0 378.8
10:05 12.0 15.8 65.5 1032.1 5.0 SSE 10.2 S 0.0 387.9
10:10 12.2 16.0 65.0 1032.2 4.9 SSW 8.8 SSE 0.0 394.4
10:15 12.3 16.0 63.5 1032.2 6.0 S 9.9 SSE 0.0 403.3
10:20 12.2 16.2 63.2 1032.2 6.4 SSE 10.6 S 0.0 411.6
10:25 12.2 16.4 63.6 1032.2 6.3 SSE 9.9 S 0.0 419.7
10:30 12.3 16.7 63.1 1032.2 5.2 SSE 10.2 S 0.0 428.0
10:35 12.3 17.2 63.4 1032.2 4.7 S 8.5 SW 0.0 434.0
10:40 12.4 17.3 62.3 1032.1 5.0 S 9.5 WSW 0.0 440.5
10:45 12.5 17.2 62.4 1032.1 6.6 SSE 12.0 SSE 0.0 445.8
10:50 12.4 17.1 62.3 1032.1 7.4 SSE 11.6 SSE 0.0 451.6
10:55 12.5 17.2 61.8 1032.1 6.6 SSE 12.0 SSE 0.0 456.9
11:00 12.5 17.4 62.3 1032.0 5.4 S 11.3 S 0.0 462.4
11:05 12.7 17.6 61.6 1032.0 4.0 SSW 7.8 SSW 0.0 468.4
11:10 12.9 17.9 60.2 1032.0 7.2 S 13.1 S 0.0 472.9
11:15 12.6 17.6 60.7 1031.9 8.5 SSE 14.8 SSE 0.0 477.0
11:20 12.5 17.5 60.3 1031.9 6.9 SSE 12.4 SSE 0.0 480.0
11:25 12.4 17.5 60.8 1031.8 7.8 SE 11.6 SSE 0.0 487.3
11:30 12.5 17.6 60.2 1031.8 6.2 S 11.6 S 0.0 489.3
11:35 12.7 18.1 58.6 1031.8 4.9 S 10.9 S 0.0 491.0
11:40 12.7 18.1 59.6 1031.8 8.2 SSE 12.0 SSE 0.0 494.7
11:45 12.6 17.9 60.6 1031.7 6.6 SSE 10.9 SSE 0.0 495.8
11:50 12.6 18.3 63.4 1031.7 7.0 SSE 12.0 S 0.0 494.3
11:55 12.7 18.5 62.8 1031.6 7.6 S 13.1 S 0.0 494.4
12:00 12.7 18.6 63.1 1031.6 5.5 S 12.4 SSE 0.0 491.7
12:05 12.5 17.9 65.7 1031.6 8.9 SE 13.4 SE 0.0 488.8
12:10 12.5 17.9 66.8 1031.6 7.9 SSE 12.4 SSE 0.0 489.2
12:15 12.4 18.0 67.0 1031.5 6.7 SSE 12.0 SSE 0.0 484.1
12:20 12.3 18.2 67.6 1031.4 7.1 SSE 12.7 S 0.0 483.1
12:25 12.4 18.3 67.4 1031.4 6.8 SSE 12.7 SSE 0.0 483.5
12:30 12.5 18.2 66.4 1031.4 7.6 SSE 12.4 SSE 0.0 483.2
12:35 12.4 18.0 68.1 1031.4 8.2 SSE 12.7 SSE 0.0 479.9
12:40 12.5 18.0 67.2 1031.3 7.9 SSE 14.1 SSE 0.0 478.4
12:45 12.4 18.1 67.4 1031.2 7.1 SSE 10.9 SSE 0.0 478.9
12:50 12.5 18.1 66.8 1031.2 7.0 ESE 12.4 ESE 0.0 477.7
12:55 12.7 18.0 65.2 1031.1 6.7 SE 11.6 ESE 0.0 471.7
13:00 12.5 18.2 65.5 1031.1 8.1 SSE 14.8 S 0.0 468.5
13:05 12.8 18.4 65.6 1031.1 6.9 S 10.9 SE 0.0 466.0
13:10 12.7 18.1 65.4 1031.1 7.1 SSE 12.0 SSE 0.0 460.2
13:15 12.6 18.2 66.0 1031.0 4.7 SSE 10.2 SE 0.0 453.6
13:20 12.8 18.3 68.8 1030.9 6.8 SSE 11.3 SE 0.0 448.3
13:25 12.9 18.3 68.6 1030.9 7.9 SSE 15.2 SSE 0.0 445.2
13:30 12.8 18.0 69.2 1030.9 8.9 S 14.1 SSW 0.0 437.8
13:35 12.6 18.1 68.9 1030.8 7.4 S 14.5 S 0.0 430.1
13:40 12.7 18.2 69.1 1030.8 6.3 SSE 11.3 SSW 0.0 425.5
13:45 12.7 17.9 69.9 1030.7 8.6 SSE 14.5 SSE 0.0 419.2
13:50 12.6 17.9 69.3 1030.7 8.6 S 13.4 S 0.0 411.2
13:55 12.6 17.8 68.3 1030.7 7.0 S 11.3 S 0.0 404.5
14:00 12.5 17.7 68.7 1030.6 6.1 SSE 12.0 S 0.0 395.5
14:05 12.5 17.7 69.7 1030.5 7.2 SSW 12.7 S 0.0 384.1
14:10 12.9 17.9 70.3 1030.5 5.1 SSW 9.5 S 0.0 374.8
14:15 12.9 18.1 70.6 1030.5 8.0 S 12.0 SE 0.0 372.7
14:20 12.8 18.3 72.0 1030.5 5.3 SSE 10.9 SE 0.0 363.9
14:25 12.8 18.2 71.3 1030.5 6.5 SSE 13.8 SSW 0.0 346.7
14:30 12.7 17.8 70.3 1030.5 7.4 S 12.4 S 0.0 352.6
14:35 12.6 17.6 72.0 1030.6 7.9 SSE 13.8 SSE 0.0 332.0
14:40 12.4 17.0 72.1 1030.5 6.7 S 13.1 SSW 0.0 305.4
14:45 12.4 17.2 72.8 1030.6 6.0 SSE 10.6 ESE 0.0 322.7
14:50 12.4 17.2 72.0 1030.6 7.4 SSW 13.4 S 0.0 299.2
14:55 12.5 16.9 72.3 1030.6 5.9 SSW 9.9 SW 0.0 305.5
15:00 12.7 16.9 71.0 1030.6 6.9 S 11.6 SSE 0.0 290.4
15:05 12.5 16.6 73.0 1030.6 8.3 SSE 13.1 SSE 0.0 280.4
15:10 12.2 16.3 73.6 1030.6 8.3 SE 10.9 SE 0.0 267.7
15:15 12.2 16.1 73.4 1030.6 7.4 S 12.4 S 0.0 255.2
15:20 12.1 16.1 73.7 1030.6 9.0 SSE 13.8 SSE 0.0 250.6
15:25 11.9 15.5 74.1 1030.6 8.5 SSE 14.5 ESE 0.0 245.0
15:30 11.9 15.8 74.0 1030.6 5.7 S 10.6 S 0.0 228.7
15:35 12.0 15.1 74.0 1030.6 8.4 SE 11.6 SSE 0.0 225.0
15:40 11.9 14.6 73.8 1030.6 5.2 SSE 9.5 SSE 0.0 207.5
15:45 11.9 14.4 74.5 1030.6 7.3 SSE 13.4 SSE 0.0 202.3
15:50 11.9 14.3 75.5 1030.6 6.6 S 10.9 SSE 0.0 154.8
15:55 11.8 14.1 75.1 1030.6 7.5 S 10.9 S 0.0 109.3
16:00 11.7 14.2 75.0 1030.6 5.0 S 10.6 S 0.0 143.8
16:05 11.6 14.1 75.0 1030.6 7.6 S 10.9 S 0.0 91.8
16:10 11.5 13.7 75.6 1030.6 4.5 SSE 8.8 S 0.0 78.7
16:15 11.5 13.5 76.2 1030.6 4.2 SSW 8.8 S 0.0 61.0
16:20 11.4 12.9 76.0 1030.6 5.2 SE 8.1 SSE 0.0 61.8
16:25 11.2 12.1 76.9 1030.7 5.8 SSE 9.2 S 0.0 56.9
16:30 11.1 11.7 77.4 1030.7 5.3 SSE 8.8 SSE 0.0 53.4
16:35 11.0 11.4 77.9 1030.7 5.7 SSE 10.9 S 0.0 46.2
16:40 10.9 11.1 78.4 1030.7 4.5 SSE 10.6 SSE 0.0 27.8
16:45 10.7 10.7 79.1 1030.7 6.8 SSE 9.9 SSE 0.0 16.9
16:50 10.6 10.6 79.4 1030.8 5.1 S 7.4 SSW 0.0 12.1
16:55 10.6 10.4 79.9 1030.9 4.3 S 6.0 S 0.0 7.0
17:00 10.5 10.3 80.5 1030.9 4.1 S 6.7 S 0.0 3.9
17:05 10.5 10.1 80.5 1030.8 3.0 S 6.4 SE 0.0 2.6
17:10 10.4 9.9 80.6 1030.8 3.0 S 6.0 S 0.0 1.5
17:15 10.3 9.7 80.4 1030.9 3.4 SW 7.4 SSW 0.0 0.8
Máxima 13.2 18.6 89.1 1032.2 12.1 NNW 15.9 NNW 0.0 495.8
Mínima 5.5 3.9 58.6 1030.5
Total 0.0